Time;durP1;ratioP1;P1;durP2;ratioP2;P2;SDS_P1;SDS_P2;PMS_P1;PMS_P2;Temp;Humidity;BMP_temperature;BMP_pressure;BME280_temperature;BME280_humidity;BME280_pressure;Samples;Min_cycle;Max_cycle;Signal;HPM_P1;HPM_P2
2023/08/30 00:00:45;;;;;;;4.20;3.10;;;;;;;;;;5070570;28;20200;-55
2023/08/30 00:03:12;;;;;;;3.40;3.10;;;;;;;;;;5070412;28;20615;-55
2023/08/30 00:05:39;;;;;;;3.93;3.63;;;;;;;;;;5070529;28;20219;-55
2023/08/30 00:08:05;;;;;;;3.43;3.13;;;;;;;;;;5072769;28;20200;-54
2023/08/30 00:10:32;;;;;;;3.33;3.03;;;;;;;;;;5073975;28;20210;-55
2023/08/30 00:12:59;;;;;;;4.00;3.60;;;;;;;;;;5073940;28;20188;-55
2023/08/30 00:15:25;;;;;;;5.80;4.17;;;;;;;;;;5073927;28;20242;-55
2023/08/30 00:17:54;;;;;;;5.00;4.13;;;;;;;;;;5073955;28;20248;-55
2023/08/30 00:20:20;;;;;;;4.47;4.07;;;;;;;;;;5073645;28;20200;-55
2023/08/30 00:22:52;;;;;;;5.40;3.67;;;;;;;;;;5073724;28;20199;-55
2023/08/30 00:25:18;;;;;;;3.37;3.10;;;;;;;;;;5073547;28;20223;-55
2023/08/30 00:27:44;;;;;;;3.73;3.30;;;;;;;;;;5073704;28;20274;-55
2023/08/30 00:30:12;;;;;;;3.50;3.20;;;;;;;;;;5073414;28;20613;-55
2023/08/30 00:32:38;;;;;;;3.90;3.20;;;;;;;;;;5074081;28;20560;-55
2023/08/30 00:35:05;;;;;;;3.50;3.20;;;;;;;;;;5073593;28;20309;-56
2023/08/30 00:37:31;;;;;;;3.10;2.90;;;;;;;;;;5073518;28;20985;-55
2023/08/30 00:39:57;;;;;;;3.35;3.05;;;;;;;;;;5073545;28;20234;-55
2023/08/30 00:42:23;;;;;;;3.55;3.25;;;;;;;;;;5057218;28;20333;-55
2023/08/30 00:44:49;;;;;;;3.40;3.10;;;;;;;;;;5051431;28;20159;-54
2023/08/30 00:47:16;;;;;;;3.83;3.40;;;;;;;;;;5051557;28;20621;-54
2023/08/30 00:49:42;;;;;;;3.33;2.73;;;;;;;;;;5053474;28;20619;-54
2023/08/30 00:52:10;;;;;;;3.70;3.40;;;;;;;;;;5053460;28;20232;-54
2023/08/30 00:54:36;;;;;;;3.43;3.17;;;;;;;;;;5053371;28;20204;-54
2023/08/30 00:57:03;;;;;;;3.70;3.40;;;;;;;;;;5053324;28;20207;-54
2023/08/30 00:59:30;;;;;;;4.20;3.30;;;;;;;;;;5053289;28;20224;-54
2023/08/30 01:01:56;;;;;;;4.30;3.90;;;;;;;;;;5053248;28;20247;-55
2023/08/30 01:04:24;;;;;;;5.67;4.80;;;;;;;;;;5053113;28;20207;-59
2023/08/30 01:06:50;;;;;;;5.93;4.97;;;;;;;;;;5053028;28;20228;-54
2023/08/30 01:09:16;;;;;;;6.57;4.90;;;;;;;;;;5053041;28;20226;-54
2023/08/30 01:11:46;;;;;;;5.63;4.97;;;;;;;;;;5053078;28;20223;-54
2023/08/30 01:14:14;;;;;;;5.53;4.90;;;;;;;;;;5052927;28;20271;-55
2023/08/30 01:16:40;;;;;;;5.30;4.47;;;;;;;;;;5053104;28;20215;-55
2023/08/30 01:19:15;;;;;;;4.80;4.40;;;;;;;;;;5052830;28;20200;-55
2023/08/30 01:21:49;;;;;;;5.03;4.63;;;;;;;;;;5053001;28;20200;-55
2023/08/30 01:24:21;;;;;;;4.47;4.17;;;;;;;;;;5052637;28;20204;-55
2023/08/30 01:26:55;;;;;;;4.80;4.30;;;;;;;;;;5052922;28;20220;-55
2023/08/30 01:29:22;;;;;;;4.37;3.70;;;;;;;;;;5052629;28;20275;-55
2023/08/30 01:31:49;;;;;;;4.90;4.23;;;;;;;;;;5052708;28;20200;-55
2023/08/30 01:34:16;;;;;;;5.30;4.83;;;;;;;;;;5052512;28;20246;-55
2023/08/30 01:36:43;;;;;;;4.43;4.03;;;;;;;;;;5052630;28;20199;-55
2023/08/30 01:39:09;;;;;;;4.50;4.13;;;;;;;;;;5052510;28;20200;-55
2023/08/30 01:41:36;;;;;;;5.17;4.77;;;;;;;;;;5052485;28;20231;-55
2023/08/30 01:44:03;;;;;;;4.80;4.40;;;;;;;;;;5052062;28;20248;-55
2023/08/30 01:46:31;;;;;;;5.47;4.27;;;;;;;;;;5052187;28;20259;-55
2023/08/30 01:48:57;;;;;;;6.50;5.37;;;;;;;;;;5052408;28;20292;-55
2023/08/30 01:51:24;;;;;;;6.37;5.77;;;;;;;;;;5052360;28;20678;-55
2023/08/30 01:53:53;;;;;;;7.00;6.50;;;;;;;;;;5052189;28;20202;-55
2023/08/30 01:56:19;;;;;;;6.70;6.00;;;;;;;;;;5052100;28;20207;-55
2023/08/30 01:58:45;;;;;;;7.50;6.90;;;;;;;;;;5052220;28;20239;-56
2023/08/30 02:01:11;;;;;;;7.93;7.23;;;;;;;;;;5052221;28;20223;-55
2023/08/30 02:03:39;;;;;;;7.53;6.97;;;;;;;;;;5052188;28;20201;-55
2023/08/30 02:06:08;;;;;;;7.67;6.97;;;;;;;;;;5051828;28;20216;-55
2023/08/30 02:08:37;;;;;;;8.23;7.53;;;;;;;;;;5051787;28;20298;-55
2023/08/30 02:11:05;;;;;;;7.60;6.93;;;;;;;;;;5051876;28;20227;-55
2023/08/30 02:13:31;;;;;;;7.67;7.00;;;;;;;;;;5051759;28;20647;-55
2023/08/30 02:15:59;;;;;;;7.50;6.77;;;;;;;;;;5051907;28;20253;-55
2023/08/30 02:18:26;;;;;;;8.23;7.43;;;;;;;;;;5051861;28;20211;-54
2023/08/30 02:20:55;;;;;;;7.40;6.80;;;;;;;;;;5052055;28;20257;-55
2023/08/30 02:23:23;;;;;;;8.50;7.70;;;;;;;;;;5051532;28;20265;-55
2023/08/30 02:25:49;;;;;;;7.20;6.60;;;;;;;;;;5051677;28;20238;-55
2023/08/30 02:28:15;;;;;;;8.73;8.00;;;;;;;;;;5051496;28;20287;-55
2023/08/30 02:30:41;;;;;;;8.80;7.30;;;;;;;;;;5051198;28;20193;-55
2023/08/30 02:33:07;;;;;;;8.43;7.63;;;;;;;;;;5051918;28;20602;-55
2023/08/30 02:35:33;;;;;;;9.30;8.43;;;;;;;;;;5051415;28;20250;-55
2023/08/30 02:38:04;;;;;;;9.50;8.53;;;;;;;;;;5051304;28;20670;-55
2023/08/30 02:40:31;;;;;;;8.70;8.00;;;;;;;;;;5051298;28;20212;-55
2023/08/30 02:42:57;;;;;;;9.30;8.50;;;;;;;;;;5051274;28;20267;-55
2023/08/30 02:45:23;;;;;;;9.33;8.53;;;;;;;;;;5051352;28;20243;-55
2023/08/30 02:47:49;;;;;;;8.97;7.83;;;;;;;;;;5051327;28;20200;-55
2023/08/30 02:50:15;;;;;;;9.13;7.93;;;;;;;;;;5051498;28;20196;-56
2023/08/30 02:52:41;;;;;;;11.13;8.13;;;;;;;;;;5051269;28;20203;-55
2023/08/30 02:55:08;;;;;;;9.43;8.67;;;;;;;;;;5051376;28;20201;-55
2023/08/30 02:57:34;;;;;;;10.03;9.13;;;;;;;;;;5051371;28;20230;-55
2023/08/30 03:00:00;;;;;;;9.40;8.50;;;;;;;;;;5051234;28;20188;-55
2023/08/30 03:02:26;;;;;;;8.90;8.20;;;;;;;;;;5051231;28;20557;-58
2023/08/30 03:04:52;;;;;;;9.83;8.83;;;;;;;;;;5051184;28;20215;-56
2023/08/30 03:07:18;;;;;;;9.33;8.27;;;;;;;;;;5051119;28;20234;-55
2023/08/30 03:09:44;;;;;;;8.83;8.03;;;;;;;;;;5051093;28;20184;-55
2023/08/30 03:12:12;;;;;;;8.03;7.33;;;;;;;;;;5051240;28;20627;-55
2023/08/30 03:14:38;;;;;;;8.37;7.70;;;;;;;;;;5051174;28;20206;-55
2023/08/30 03:17:04;;;;;;;8.80;8.10;;;;;;;;;;5051339;28;20203;-55
2023/08/30 03:19:30;;;;;;;7.63;6.93;;;;;;;;;;5051173;28;20196;-55
2023/08/30 03:21:56;;;;;;;7.23;6.63;;;;;;;;;;5051149;28;20196;-55
2023/08/30 03:24:22;;;;;;;8.30;7.60;;;;;;;;;;5050964;28;20200;-55
2023/08/30 03:26:48;;;;;;;8.50;7.80;;;;;;;;;;5050979;28;20642;-58
2023/08/30 03:29:15;;;;;;;9.20;8.33;;;;;;;;;;5050850;28;20230;-55
2023/08/30 03:31:43;;;;;;;8.73;8.03;;;;;;;;;;5051079;28;20200;-55
2023/08/30 03:34:09;;;;;;;9.07;8.27;;;;;;;;;;5051067;28;20212;-55
2023/08/30 03:36:35;;;;;;;10.00;8.37;;;;;;;;;;5050747;28;20668;-55
2023/08/30 03:39:02;;;;;;;7.63;6.93;;;;;;;;;;5050783;28;20211;-55
2023/08/30 03:41:28;;;;;;;8.17;7.47;;;;;;;;;;5050700;28;20242;-55
2023/08/30 03:43:54;;;;;;;8.63;7.70;;;;;;;;;;5054419;28;20244;-55
2023/08/30 03:46:22;;;;;;;8.70;7.93;;;;;;;;;;5054484;28;20637;-55
2023/08/30 03:48:48;;;;;;;8.73;8.00;;;;;;;;;;5054732;28;20392;-55
2023/08/30 03:51:14;;;;;;;8.50;7.70;;;;;;;;;;5054402;28;20257;-55
2023/08/30 03:53:40;;;;;;;9.40;8.57;;;;;;;;;;5054592;28;20249;-55
2023/08/30 03:56:06;;;;;;;9.23;8.40;;;;;;;;;;5054506;28;20189;-55
2023/08/30 03:58:33;;;;;;;8.73;7.97;;;;;;;;;;5054290;28;20265;-55
2023/08/30 04:00:59;;;;;;;10.37;9.47;;;;;;;;;;5054567;28;20570;-55
2023/08/30 04:03:26;;;;;;;8.83;8.00;;;;;;;;;;5054344;28;20603;-55
2023/08/30 04:05:55;;;;;;;10.30;9.17;;;;;;;;;;5054517;28;20637;-55
2023/08/30 04:08:21;;;;;;;10.13;9.33;;;;;;;;;;5053980;28;20283;-55
2023/08/30 04:10:49;;;;;;;9.70;8.80;;;;;;;;;;5054216;28;20243;-55
2023/08/30 04:13:15;;;;;;;10.27;9.27;;;;;;;;;;5053951;28;20201;-55
2023/08/30 04:15:41;;;;;;;10.60;9.53;;;;;;;;;;5054276;28;20189;-55
2023/08/30 04:18:07;;;;;;;10.33;9.43;;;;;;;;;;5054152;28;20227;-55
2023/08/30 04:20:35;;;;;;;10.50;9.50;;;;;;;;;;5054068;28;20196;-56
2023/08/30 04:23:01;;;;;;;10.47;9.37;;;;;;;;;;5053908;28;20196;-55
2023/08/30 04:25:27;;;;;;;10.00;9.10;;;;;;;;;;5053801;28;20281;-55
2023/08/30 04:27:53;;;;;;;10.03;9.23;;;;;;;;;;5053955;28;20678;-55
2023/08/30 04:30:19;;;;;;;10.53;9.63;;;;;;;;;;5053660;28;20669;-55
2023/08/30 04:32:46;;;;;;;9.47;8.63;;;;;;;;;;5053738;28;20279;-55
2023/08/30 04:35:12;;;;;;;8.70;7.97;;;;;;;;;;5053629;28;20192;-55
2023/08/30 04:37:39;;;;;;;8.33;7.53;;;;;;;;;;5055964;28;20191;-55
2023/08/30 04:40:07;;;;;;;9.10;8.27;;;;;;;;;;5054237;28;20295;-55
2023/08/30 04:42:33;;;;;;;9.67;8.73;;;;;;;;;;5053454;28;20686;-55
2023/08/30 04:45:00;;;;;;;8.83;8.03;;;;;;;;;;5054800;28;20184;-55
2023/08/30 04:47:26;;;;;;;9.90;9.00;;;;;;;;;;5053630;28;20275;-55
2023/08/30 04:49:52;;;;;;;10.17;9.13;;;;;;;;;;5053569;28;20211;-55
2023/08/30 04:52:18;;;;;;;10.60;9.30;;;;;;;;;;5053675;28;20208;-56
2023/08/30 04:54:48;;;;;;;10.23;9.33;;;;;;;;;;5053476;28;20199;-55
2023/08/30 04:57:16;;;;;;;10.87;9.87;;;;;;;;;;5054697;28;20674;-56
2023/08/30 04:59:42;;;;;;;10.17;9.23;;;;;;;;;;5054964;28;20275;-56
2023/08/30 05:02:08;;;;;;;9.50;8.70;;;;;;;;;;5054733;28;20196;-56
2023/08/30 05:04:34;;;;;;;10.73;9.83;;;;;;;;;;5053836;28;20206;-56
2023/08/30 05:07:01;;;;;;;10.63;9.57;;;;;;;;;;5053866;28;20235;-56
2023/08/30 05:09:27;;;;;;;9.73;8.93;;;;;;;;;;5054424;28;20199;-56
2023/08/30 05:11:54;;;;;;;10.27;9.37;;;;;;;;;;5053241;28;20206;-55
2023/08/30 05:14:21;;;;;;;10.30;8.80;;;;;;;;;;5052649;28;20663;-55
2023/08/30 05:16:47;;;;;;;9.67;8.67;;;;;;;;;;5053690;28;20193;-56
2023/08/30 05:19:13;;;;;;;9.00;8.10;;;;;;;;;;5053765;28;20290;-56
2023/08/30 05:21:39;;;;;;;10.63;8.43;;;;;;;;;;5052908;28;20283;-56
2023/08/30 05:24:07;;;;;;;9.07;8.17;;;;;;;;;;5052693;28;20283;-56
2023/08/30 05:26:33;;;;;;;10.00;9.07;;;;;;;;;;5053961;28;20542;-56
2023/08/30 05:29:00;;;;;;;9.70;8.90;;;;;;;;;;5052740;28;20724;-56
2023/08/30 05:31:26;;;;;;;9.43;8.53;;;;;;;;;;5052833;28;20275;-56
2023/08/30 05:33:52;;;;;;;9.80;9.00;;;;;;;;;;5052739;28;20275;-55
2023/08/30 05:36:18;;;;;;;10.27;9.20;;;;;;;;;;5052446;28;20286;-55
2023/08/30 05:38:44;;;;;;;10.87;9.93;;;;;;;;;;5052417;28;20207;-55
2023/08/30 05:41:10;;;;;;;11.63;10.43;;;;;;;;;;5052420;28;20265;-56
2023/08/30 05:43:36;;;;;;;12.30;11.07;;;;;;;;;;5052157;28;20244;-56
2023/08/30 05:46:04;;;;;;;11.67;10.57;;;;;;;;;;5052317;28;20258;-56
2023/08/30 05:48:30;;;;;;;10.87;9.87;;;;;;;;;;5052435;28;20212;-56
2023/08/30 05:50:56;;;;;;;10.90;10.00;;;;;;;;;;5052533;28;20204;-56
2023/08/30 05:53:23;;;;;;;10.93;9.93;;;;;;;;;;5052142;28;20232;-57
2023/08/30 05:55:49;;;;;;;11.43;10.33;;;;;;;;;;5052285;28;20196;-56
2023/08/30 05:58:15;;;;;;;10.67;9.73;;;;;;;;;;5052066;28;20245;-57
2023/08/30 06:00:41;;;;;;;12.50;10.70;;;;;;;;;;5052243;28;20609;-56
2023/08/30 06:03:10;;;;;;;11.60;10.50;;;;;;;;;;5052122;28;20566;-56
2023/08/30 06:05:37;;;;;;;11.93;10.93;;;;;;;;;;5051243;28;20660;-56
2023/08/30 06:08:03;;;;;;;12.13;10.90;;;;;;;;;;5051764;28;20287;-56
2023/08/30 06:10:30;;;;;;;11.83;10.67;;;;;;;;;;5051703;28;20589;-56
2023/08/30 06:12:56;;;;;;;11.30;10.20;;;;;;;;;;5051941;28;20714;-56
2023/08/30 06:15:22;;;;;;;11.53;10.33;;;;;;;;;;5052129;28;20191;-56
2023/08/30 06:17:49;;;;;;;11.83;10.70;;;;;;;;;;5051810;28;20200;-57
2023/08/30 06:20:17;;;;;;;11.63;10.57;;;;;;;;;;5051556;28;20204;-54
2023/08/30 06:22:43;;;;;;;11.20;10.30;;;;;;;;;;5051708;28;20204;-56
2023/08/30 06:25:09;;;;;;;12.60;11.50;;;;;;;;;;5052009;28;20599;-56
2023/08/30 06:27:37;;;;;;;10.97;9.87;;;;;;;;;;5051532;28;20196;-56
2023/08/30 06:30:03;;;;;;;12.37;11.17;;;;;;;;;;5051580;28;20294;-56
2023/08/30 06:32:29;;;;;;;12.30;11.20;;;;;;;;;;5051421;28;20200;-56
2023/08/30 06:34:55;;;;;;;12.20;11.10;;;;;;;;;;5051773;28;20283;-56
2023/08/30 06:37:24;;;;;;;12.70;11.40;;;;;;;;;;5051392;28;20196;-56
2023/08/30 06:39:50;;;;;;;12.10;10.90;;;;;;;;;;5051490;28;20210;-56
2023/08/30 06:42:16;;;;;;;10.83;9.93;;;;;;;;;;5051271;28;20274;-56
2023/08/30 06:44:42;;;;;;;10.80;9.80;;;;;;;;;;5051418;28;20200;-56
2023/08/30 06:47:08;;;;;;;11.47;10.33;;;;;;;;;;5051676;28;20231;-56
2023/08/30 06:49:35;;;;;;;10.63;9.53;;;;;;;;;;5051171;28;20192;-56
2023/08/30 06:52:03;;;;;;;9.80;8.93;;;;;;;;;;5051199;28;20319;-56
2023/08/30 06:54:32;;;;;;;11.27;10.27;;;;;;;;;;5051381;28;20642;-56
2023/08/30 06:56:58;;;;;;;10.07;9.07;;;;;;;;;;5051354;28;20200;-55
2023/08/30 06:59:24;;;;;;;10.97;9.97;;;;;;;;;;5051311;28;20254;-55
2023/08/30 07:01:51;;;;;;;11.37;10.37;;;;;;;;;;5051340;28;20192;-56
2023/08/30 07:04:17;;;;;;;10.27;9.37;;;;;;;;;;5051053;28;20288;-55
2023/08/30 07:06:43;;;;;;;10.47;9.47;;;;;;;;;;5050997;28;20248;-55
2023/08/30 07:09:09;;;;;;;9.90;8.93;;;;;;;;;;5051366;28;20208;-56
2023/08/30 07:11:37;;;;;;;9.57;8.53;;;;;;;;;;5051038;28;20200;-55
2023/08/30 07:14:03;;;;;;;10.53;9.63;;;;;;;;;;5051180;28;20583;-56
2023/08/30 07:16:31;;;;;;;9.83;8.83;;;;;;;;;;5052588;28;20199;-55
2023/08/30 07:18:57;;;;;;;9.30;8.40;;;;;;;;;;5055190;28;20202;-56
2023/08/30 07:21:23;;;;;;;9.40;8.47;;;;;;;;;;5055162;28;20232;-56
2023/08/30 07:23:49;;;;;;;9.77;8.77;;;;;;;;;;5055019;28;20192;-56
2023/08/30 07:26:15;;;;;;;10.97;9.40;;;;;;;;;;5054912;28;20293;-56
2023/08/30 07:28:43;;;;;;;8.37;7.57;;;;;;;;;;5054879;28;20196;-55
2023/08/30 07:31:09;;;;;;;9.77;8.77;;;;;;;;;;5055072;28;20228;-55
2023/08/30 07:33:35;;;;;;;8.97;8.13;;;;;;;;;;5054540;28;20249;-55
2023/08/30 07:36:02;;;;;;;9.93;9.03;;;;;;;;;;5054676;28;20269;-55
2023/08/30 07:38:28;;;;;;;8.73;7.90;;;;;;;;;;5054491;28;20226;-56
2023/08/30 07:40:54;;;;;;;9.97;8.97;;;;;;;;;;5054907;28;20196;-56
2023/08/30 07:43:20;;;;;;;10.27;9.30;;;;;;;;;;5054334;28;20717;-55
2023/08/30 07:45:48;;;;;;;10.93;9.83;;;;;;;;;;5054497;28;20755;-55
2023/08/30 07:48:14;;;;;;;10.30;9.40;;;;;;;;;;5054450;28;20741;-56
2023/08/30 07:50:40;;;;;;;9.77;8.77;;;;;;;;;;5054768;28;20204;-55
2023/08/30 07:53:06;;;;;;;10.23;9.17;;;;;;;;;;5054583;28;20591;-56
2023/08/30 07:55:32;;;;;;;8.90;7.73;;;;;;;;;;5054702;28;20194;-55
2023/08/30 07:57:58;;;;;;;9.23;8.40;;;;;;;;;;5054769;28;20207;-55
2023/08/30 08:00:24;;;;;;;8.83;8.03;;;;;;;;;;5054601;28;20250;-55
2023/08/30 08:02:51;;;;;;;8.00;7.30;;;;;;;;;;5054568;28;20228;-55
2023/08/30 08:05:17;;;;;;;8.60;7.80;;;;;;;;;;5054486;28;20283;-55
2023/08/30 08:07:44;;;;;;;8.37;7.60;;;;;;;;;;5054356;28;20528;-55
2023/08/30 08:10:10;;;;;;;7.60;6.90;;;;;;;;;;5054582;28;20413;-55
2023/08/30 08:12:36;;;;;;;8.27;7.50;;;;;;;;;;5054349;28;20216;-55
2023/08/30 08:15:02;;;;;;;7.57;6.73;;;;;;;;;;5054380;28;20208;-58
2023/08/30 08:17:29;;;;;;;6.77;6.17;;;;;;;;;;5054133;28;20196;-59
2023/08/30 08:19:57;;;;;;;8.43;6.67;;;;;;;;;;5054365;28;20201;-55
2023/08/30 08:22:23;;;;;;;7.00;6.30;;;;;;;;;;5054193;28;20202;-55
2023/08/30 08:24:51;;;;;;;7.53;6.10;;;;;;;;;;5054054;28;20251;-57
2023/08/30 08:27:17;;;;;;;6.10;5.60;;;;;;;;;;5053223;28;20248;-55
2023/08/30 08:29:43;;;;;;;7.87;5.80;;;;;;;;;;5053403;28;20203;-50
2023/08/30 08:32:09;;;;;;;6.90;5.47;;;;;;;;;;5053822;28;20194;-51
2023/08/30 08:34:35;;;;;;;6.70;5.00;;;;;;;;;;5053665;28;20194;-51
2023/08/30 08:37:02;;;;;;;5.43;4.90;;;;;;;;;;5053601;28;20255;-50
2023/08/30 08:39:30;;;;;;;5.43;4.93;;;;;;;;;;5053527;28;20206;-56
2023/08/30 08:41:57;;;;;;;5.30;4.80;;;;;;;;;;5059937;28;20664;-57
2023/08/30 08:44:23;;;;;;;5.67;4.70;;;;;;;;;;5073391;28;20199;-54
2023/08/30 08:46:51;;;;;;;5.30;4.80;;;;;;;;;;5073470;28;20225;-54
2023/08/30 08:49:17;;;;;;;5.50;4.80;;;;;;;;;;5073202;28;20284;-53
2023/08/30 08:51:44;;;;;;;5.20;4.70;;;;;;;;;;5073328;28;20201;-53
2023/08/30 08:54:12;;;;;;;5.73;4.53;;;;;;;;;;5073547;28;20208;-54
2023/08/30 08:56:39;;;;;;;5.63;4.60;;;;;;;;;;5073377;28;20207;-52
2023/08/30 08:59:08;;;;;;;5.00;4.30;;;;;;;;;;5073235;28;20290;-54
2023/08/30 09:01:35;;;;;;;5.20;4.70;;;;;;;;;;5071455;28;20206;-54
2023/08/30 09:04:02;;;;;;;5.67;4.50;;;;;;;;;;5073122;28;20201;-53
2023/08/30 09:06:29;;;;;;;6.10;5.43;;;;;;;;;;5073053;28;20656;-54
2023/08/30 09:08:55;;;;;;;5.33;4.57;;;;;;;;;;5073534;28;20227;-54
2023/08/30 09:11:22;;;;;;;6.03;4.90;;;;;;;;;;5073258;28;20191;-55
2023/08/30 09:13:48;;;;;;;4.43;3.90;;;;;;;;;;5073283;28;20628;-55
2023/08/30 09:16:15;;;;;;;7.23;4.10;;;;;;;;;;5073171;28;20286;-54
2023/08/30 09:18:41;;;;;;;5.83;4.70;;;;;;;;;;5073132;28;20210;-54
2023/08/30 09:21:07;;;;;;;6.70;6.00;;;;;;;;;;5073125;28;20676;-55
2023/08/30 09:23:34;;;;;;;7.27;5.87;;;;;;;;;;5072844;28;20195;-55
2023/08/30 09:26:00;;;;;;;5.70;5.20;;;;;;;;;;5072908;28;20226;-54
2023/08/30 09:28:27;;;;;;;6.63;5.93;;;;;;;;;;5072990;28;20249;-55
2023/08/30 09:30:53;;;;;;;7.73;6.53;;;;;;;;;;5070806;28;20199;-54
2023/08/30 09:33:21;;;;;;;10.67;7.07;;;;;;;;;;5072317;28;20222;-54
2023/08/30 09:35:47;;;;;;;7.40;6.03;;;;;;;;;;5072246;28;20722;-55
2023/08/30 09:38:17;;;;;;;6.93;6.00;;;;;;;;;;5072180;28;20200;-55
2023/08/30 09:40:44;;;;;;;9.30;7.77;;;;;;;;;;5072165;28;20542;-54
2023/08/30 09:43:10;;;;;;;8.67;7.80;;;;;;;;;;5072196;28;20322;-54
2023/08/30 09:45:38;;;;;;;8.60;7.70;;;;;;;;;;5071954;28;20203;-54
2023/08/30 09:48:05;;;;;;;8.00;7.20;;;;;;;;;;5071850;28;20203;-54
2023/08/30 09:50:34;;;;;;;8.87;7.67;;;;;;;;;;5072018;28;20199;-54
2023/08/30 09:53:01;;;;;;;8.20;7.30;;;;;;;;;;5072097;28;20252;-55
2023/08/30 09:55:27;;;;;;;7.93;6.70;;;;;;;;;;5071992;28;20238;-55
2023/08/30 09:57:54;;;;;;;7.47;6.77;;;;;;;;;;5072111;28;20193;-55
2023/08/30 10:00:20;;;;;;;8.27;7.10;;;;;;;;;;5071860;28;20204;-54
2023/08/30 10:02:47;;;;;;;8.87;7.00;;;;;;;;;;5071593;28;20255;-54
2023/08/30 10:05:13;;;;;;;7.80;7.00;;;;;;;;;;5072350;28;20195;-55
2023/08/30 10:07:39;;;;;;;8.53;6.40;;;;;;;;;;5072175;28;20635;-54
2023/08/30 10:10:06;;;;;;;8.47;6.83;;;;;;;;;;5072181;28;20222;-54
2023/08/30 10:12:33;;;;;;;6.70;6.00;;;;;;;;;;5072030;28;20199;-54
2023/08/30 10:14:59;;;;;;;9.17;7.67;;;;;;;;;;5072080;28;20207;-54
2023/08/30 10:17:28;;;;;;;8.40;6.73;;;;;;;;;;5071963;28;20650;-54
2023/08/30 10:19:55;;;;;;;6.60;5.90;;;;;;;;;;5072316;28;20207;-55
2023/08/30 10:22:22;;;;;;;7.83;6.93;;;;;;;;;;5071873;28;20206;-54
2023/08/30 10:24:51;;;;;;;6.27;5.57;;;;;;;;;;5071922;28;20263;-54
2023/08/30 10:27:17;;;;;;;5.10;4.60;;;;;;;;;;5071768;28;20229;-54
2023/08/30 10:29:44;;;;;;;6.27;5.67;;;;;;;;;;5071936;28;20546;-55
2023/08/30 10:32:10;;;;;;;6.53;5.57;;;;;;;;;;5072034;28;20209;-54
2023/08/30 10:34:37;;;;;;;8.87;6.10;;;;;;;;;;5071517;28;20726;-54
2023/08/30 10:37:07;;;;;;;7.77;5.33;;;;;;;;;;5071711;28;20197;-54
2023/08/30 10:39:35;;;;;;;6.83;6.20;;;;;;;;;;5071568;28;20295;-54
2023/08/30 10:42:01;;;;;;;6.27;5.67;;;;;;;;;;5071475;28;20253;-55
2023/08/30 10:44:27;;;;;;;6.53;5.17;;;;;;;;;;5071703;28;20199;-54
2023/08/30 10:46:54;;;;;;;5.17;4.67;;;;;;;;;;5071804;28;20285;-55
2023/08/30 10:49:21;;;;;;;6.10;5.27;;;;;;;;;;5071611;28;20266;-54
2023/08/30 10:51:54;;;;;;;7.00;4.90;;;;;;;;;;5071327;28;20197;-54
2023/08/30 10:54:23;;;;;;;6.57;5.43;;;;;;;;;;5071623;28;20205;-54
2023/08/30 10:56:55;;;;;;;7.30;5.93;;;;;;;;;;5071655;28;20204;-54
2023/08/30 10:59:22;;;;;;;5.80;5.30;;;;;;;;;;5071414;28;20232;-54
2023/08/30 11:01:50;;;;;;;5.80;5.20;;;;;;;;;;5071471;28;20205;-55
2023/08/30 11:04:17;;;;;;;4.87;4.07;;;;;;;;;;5071322;28;20246;-54
2023/08/30 11:06:44;;;;;;;7.20;4.93;;;;;;;;;;5071095;28;20701;-54
2023/08/30 11:09:10;;;;;;;5.20;4.70;;;;;;;;;;5071519;28;20665;-59
2023/08/30 11:11:38;;;;;;;6.30;4.47;;;;;;;;;;5071487;28;20255;-59
2023/08/30 11:14:05;;;;;;;5.63;4.53;;;;;;;;;;5071563;28;20200;-59
2023/08/30 11:16:31;;;;;;;5.77;4.60;;;;;;;;;;5071161;28;20203;-59
2023/08/30 11:18:57;;;;;;;5.80;4.63;;;;;;;;;;5069337;28;20225;-59
2023/08/30 11:21:23;;;;;;;6.10;4.70;;;;;;;;;;5070835;28;20192;-59
2023/08/30 11:23:49;;;;;;;5.80;4.53;;;;;;;;;;5070873;28;20287;-59
2023/08/30 11:26:16;;;;;;;4.10;3.70;;;;;;;;;;5070545;28;20250;-59
2023/08/30 11:28:48;;;;;;;6.40;5.70;;;;;;;;;;5070823;28;20681;-59
2023/08/30 11:31:18;;;;;;;5.23;4.10;;;;;;;;;;5070549;28;20226;-59
2023/08/30 11:33:50;;;;;;;7.23;4.30;;;;;;;;;;5071014;28;20200;-59
2023/08/30 11:36:16;;;;;;;6.63;5.30;;;;;;;;;;5071008;28;20271;-58
2023/08/30 11:38:42;;;;;;;5.23;4.73;;;;;;;;;;5071014;28;20228;-59
2023/08/30 11:41:08;;;;;;;7.33;5.03;;;;;;;;;;5070916;28;20195;-58
2023/08/30 11:43:34;;;;;;;5.57;4.87;;;;;;;;;;5070616;28;20654;-58
2023/08/30 11:46:03;;;;;;;5.40;4.70;;;;;;;;;;5070724;28;20300;-58
2023/08/30 11:48:30;;;;;;;6.17;4.37;;;;;;;;;;5070677;28;20199;-58
2023/08/30 11:50:56;;;;;;;5.63;4.20;;;;;;;;;;5070796;28;20221;-58
2023/08/30 11:53:22;;;;;;;6.00;3.87;;;;;;;;;;5070809;28;20226;-58
2023/08/30 11:55:48;;;;;;;5.73;4.20;;;;;;;;;;5068558;28;20199;-58
2023/08/30 11:58:14;;;;;;;7.37;3.83;;;;;;;;;;5070855;28;20294;-58
2023/08/30 12:00:40;;;;;;;5.67;4.27;;;;;;;;;;5070749;28;20200;-58
2023/08/30 12:03:07;;;;;;;5.17;3.50;;;;;;;;;;5069722;28;20210;-58
2023/08/30 12:05:35;;;;;;;4.60;3.50;;;;;;;;;;5073765;28;20248;-58
2023/08/30 12:08:01;;;;;;;6.60;4.13;;;;;;;;;;5074009;28;20332;-60
2023/08/30 12:10:29;;;;;;;5.70;3.77;;;;;;;;;;5074000;28;20237;-59
2023/08/30 12:12:56;;;;;;;4.23;3.73;;;;;;;;;;5074177;28;20207;-59
2023/08/30 12:15:25;;;;;;;5.27;4.23;;;;;;;;;;5073902;28;20241;-59
2023/08/30 12:17:51;;;;;;;4.67;4.27;;;;;;;;;;5073867;28;20226;-59
2023/08/30 12:20:23;;;;;;;5.37;4.10;;;;;;;;;;5073732;28;20201;-59
2023/08/30 12:22:50;;;;;;;6.20;3.87;;;;;;;;;;5073739;28;20693;-58
2023/08/30 12:25:17;;;;;;;5.93;3.93;;;;;;;;;;5073692;28;20612;-58
2023/08/30 12:27:43;;;;;;;4.90;4.40;;;;;;;;;;5073410;28;20234;-58
2023/08/30 12:30:10;;;;;;;5.27;3.80;;;;;;;;;;5073796;28;20264;-58
2023/08/30 12:32:36;;;;;;;5.77;3.50;;;;;;;;;;5073499;28;20223;-58
2023/08/30 12:35:02;;;;;;;4.37;3.70;;;;;;;;;;5073525;28;20204;-58
2023/08/30 12:37:29;;;;;;;6.10;3.60;;;;;;;;;;5073329;28;20195;-58
2023/08/30 12:39:55;;;;;;;4.33;3.20;;;;;;;;;;5073624;28;20231;-58
2023/08/30 12:42:21;;;;;;;4.90;3.87;;;;;;;;;;5073383;28;20323;-59
2023/08/30 12:44:47;;;;;;;6.90;4.30;;;;;;;;;;5073442;28;20203;-58
2023/08/30 12:47:14;;;;;;;6.43;3.93;;;;;;;;;;5073314;28;20229;-59
2023/08/30 12:49:40;;;;;;;4.73;4.23;;;;;;;;;;5073441;28;20208;-59
2023/08/30 12:52:07;;;;;;;5.23;4.70;;;;;;;;;;5073219;28;20200;-59
2023/08/30 12:54:34;;;;;;;6.23;4.37;;;;;;;;;;5073096;28;20277;-59
2023/08/30 12:57:00;;;;;;;5.03;4.53;;;;;;;;;;5073238;28;20627;-59
2023/08/30 12:59:26;;;;;;;5.00;4.33;;;;;;;;;;5073192;28;20218;-59
2023/08/30 13:01:52;;;;;;;7.33;4.20;;;;;;;;;;5073144;28;20278;-60
2023/08/30 13:04:18;;;;;;;4.87;4.37;;;;;;;;;;5073020;28;20279;-58
2023/08/30 13:06:44;;;;;;;5.47;4.13;;;;;;;;;;5072639;28;20592;-59
2023/08/30 13:09:10;;;;;;;5.07;4.17;;;;;;;;;;5073215;28;20245;-58
2023/08/30 13:11:37;;;;;;;6.97;4.43;;;;;;;;;;5072815;28;20290;-58
2023/08/30 13:14:04;;;;;;;5.00;4.40;;;;;;;;;;5072579;28;20290;-58
2023/08/30 13:16:30;;;;;;;5.67;3.97;;;;;;;;;;5072637;28;20199;-58
2023/08/30 13:18:56;;;;;;;6.07;4.20;;;;;;;;;;5072805;28;20201;-59
2023/08/30 13:21:22;;;;;;;5.73;3.90;;;;;;;;;;5072865;28;20194;-58
2023/08/30 13:23:48;;;;;;;5.17;3.83;;;;;;;;;;5072551;28;20188;-60
2023/08/30 13:26:14;;;;;;;4.43;3.90;;;;;;;;;;5072471;28;20272;-59
2023/08/30 13:28:41;;;;;;;4.03;3.63;;;;;;;;;;5072575;28;20209;-59
2023/08/30 13:31:08;;;;;;;4.80;4.10;;;;;;;;;;5072458;28;20253;-59
2023/08/30 13:33:34;;;;;;;5.53;4.10;;;;;;;;;;5072291;28;20206;-58
2023/08/30 13:36:00;;;;;;;5.43;3.90;;;;;;;;;;5071989;28;20639;-58
2023/08/30 13:38:26;;;;;;;7.13;4.23;;;;;;;;;;5072287;28;20200;-59
2023/08/30 13:40:58;;;;;;;4.93;3.40;;;;;;;;;;5072421;28;20742;-59
2023/08/30 13:43:24;;;;;;;5.13;4.20;;;;;;;;;;5072136;28;20250;-59
2023/08/30 13:45:58;;;;;;;4.87;4.37;;;;;;;;;;5072266;28;20200;-59
2023/08/30 13:48:24;;;;;;;4.67;3.67;;;;;;;;;;5072364;28;20203;-58
2023/08/30 13:50:50;;;;;;;5.23;3.67;;;;;;;;;;5072141;28;20295;-58
2023/08/30 13:53:16;;;;;;;4.00;3.70;;;;;;;;;;5072062;28;20605;-58
2023/08/30 13:55:45;;;;;;;5.57;3.93;;;;;;;;;;5072066;28;20245;-58
2023/08/30 13:58:11;;;;;;;8.37;4.17;;;;;;;;;;5072337;28;20204;-58
2023/08/30 14:00:37;;;;;;;4.50;3.77;;;;;;;;;;5071999;28;20192;-58
2023/08/30 14:03:04;;;;;;;5.03;3.73;;;;;;;;;;5071996;28;20224;-58
2023/08/30 14:05:31;;;;;;;5.40;3.93;;;;;;;;;;5071848;28;20199;-59
2023/08/30 14:07:57;;;;;;;4.30;3.77;;;;;;;;;;5071873;28;20215;-58
2023/08/30 14:10:23;;;;;;;4.97;3.93;;;;;;;;;;5072034;28;20199;-58
2023/08/30 14:12:49;;;;;;;6.10;3.70;;;;;;;;;;5072022;28;20195;-58
2023/08/30 14:15:15;;;;;;;4.67;3.90;;;;;;;;;;5072088;28;20265;-59
2023/08/30 14:17:42;;;;;;;4.47;3.77;;;;;;;;;;5072046;28;20199;-59
2023/08/30 14:20:10;;;;;;;4.63;3.80;;;;;;;;;;5071979;28;20191;-58
2023/08/30 14:22:36;;;;;;;4.03;3.60;;;;;;;;;;5058394;28;20286;-59
2023/08/30 14:25:02;;;;;;;4.47;3.93;;;;;;;;;;5051478;28;20621;-57
2023/08/30 14:27:29;;;;;;;6.30;4.00;;;;;;;;;;5050741;28;20223;-58
2023/08/30 14:29:55;;;;;;;4.63;4.13;;;;;;;;;;5051511;28;20192;-59
2023/08/30 14:32:21;;;;;;;4.67;4.20;;;;;;;;;;5051197;28;20336;-59
2023/08/30 14:34:47;;;;;;;7.27;4.73;;;;;;;;;;5049878;28;20196;-59
2023/08/30 14:37:14;;;;;;;11.03;4.67;;;;;;;;;;5051280;28;20610;-58